Time;durP1;ratioP1;P1;durP2;ratioP2;P2;SDS_P1;SDS_P2;PMS_P1;PMS_P2;Temp;Humidity;BMP_temperature;BMP_pressure;BME280_temperature;BME280_humidity;BME280_pressure;Samples;Min_cycle;Max_cycle;Signal;HPM_P1;HPM_P2
2023/11/21 00:00:13;;;;;;;6.97;2.60;;;;;;;9.14;69.44;95658.59;5058874;28;20182;-69
2023/11/21 00:02:42;;;;;;;6.47;2.90;;;;;;;9.15;69.18;95662.06;5056403;28;20425;-68
2023/11/21 00:05:09;;;;;;;8.30;3.73;;;;;;;9.15;69.18;95656.84;5055682;28;20409;-69
2023/11/21 00:07:37;;;;;;;6.70;3.10;;;;;;;9.12;69.15;95655.22;5057712;28;20475;-68
2023/11/21 00:10:05;;;;;;;6.40;2.77;;;;;;;9.19;69.24;95659.22;5058958;28;20397;-70
2023/11/21 00:12:31;;;;;;;6.67;2.83;;;;;;;9.21;69.09;95666.97;5054546;28;20451;-67
2023/11/21 00:14:56;;;;;;;7.53;2.60;;;;;;;9.21;68.90;95664.38;5049618;28;20417;-70
2023/11/21 00:17:22;;;;;;;6.17;3.27;;;;;;;9.20;69.14;95660.91;5049851;28;20507;-69
2023/11/21 00:19:47;;;;;;;4.53;2.50;;;;;;;9.25;69.26;95661.50;5049770;28;20770;-69
2023/11/21 00:22:12;;;;;;;6.00;2.33;;;;;;;9.25;68.89;95660.69;5050060;28;20187;-68
2023/11/21 00:24:38;;;;;;;6.80;3.00;;;;;;;9.14;69.61;95661.19;5050029;28;20167;-68
2023/11/21 00:27:03;;;;;;;3.93;2.40;;;;;;;9.15;69.91;95662.91;5049692;28;20618;-69
2023/11/21 00:29:29;;;;;;;8.03;2.80;;;;;;;9.09;70.42;95650.13;5048514;28;20179;-70
2023/11/21 00:31:54;;;;;;;7.80;2.40;;;;;;;9.15;70.31;95643.75;5049837;28;20187;-69
2023/11/21 00:34:20;;;;;;;5.93;2.53;;;;;;;9.15;70.20;95652.44;5031035;28;20631;-69
2023/11/21 00:36:45;;;;;;;6.33;3.17;;;;;;;9.10;70.31;95651.84;5029288;28;20747;-70
2023/11/21 00:39:11;;;;;;;6.07;2.83;;;;;;;9.15;70.02;95641.97;5029402;28;20171;-68
2023/11/21 00:41:37;;;;;;;5.00;2.63;;;;;;;9.10;70.16;95646.59;5029304;28;20903;-70
2023/11/21 00:44:03;;;;;;;4.43;3.13;;;;;;;9.11;70.49;95635.19;5028538;28;20442;-68
2023/11/21 00:46:29;;;;;;;5.90;3.03;;;;;;;9.10;70.80;95644.81;5029204;28;20254;-68
2023/11/21 00:48:54;;;;;;;4.97;2.80;;;;;;;9.04;71.10;95642.50;5027969;28;20545;-68
2023/11/21 00:51:21;;;;;;;5.70;2.30;;;;;;;9.12;71.19;95636.91;5029238;28;20421;-70
2023/11/21 00:53:47;;;;;;;10.53;3.27;;;;;;;9.02;71.49;95639.09;5029960;28;20172;-70
2023/11/21 00:56:14;;;;;;;7.40;2.60;;;;;;;8.99;71.43;95644.50;5029503;28;20508;-69
2023/11/21 00:58:43;;;;;;;3.80;2.10;;;;;;;9.06;71.47;95640.66;5029739;28;20416;-68
2023/11/21 01:01:09;;;;;;;6.17;3.60;;;;;;;9.12;71.35;95655.22;5029545;28;20764;-69
2023/11/21 01:03:34;;;;;;;7.40;3.10;;;;;;;9.05;71.48;95648.59;5029301;28;20437;-69
2023/11/21 01:05:59;;;;;;;4.67;2.40;;;;;;;8.98;71.85;95650.66;5029182;28;20174;-69
2023/11/21 01:08:25;;;;;;;4.83;2.53;;;;;;;8.95;71.86;95653.41;5029087;28;20207;-68
2023/11/21 01:10:51;;;;;;;7.57;3.40;;;;;;;8.98;72.03;95649.84;5029224;28;21124;-69
2023/11/21 01:13:16;;;;;;;13.60;2.70;;;;;;;9.04;71.82;95645.13;5029046;28;20554;-71
2023/11/21 01:15:42;;;;;;;9.33;2.90;;;;;;;9.06;71.83;95645.88;5029161;28;20286;-68
2023/11/21 01:18:08;;;;;;;6.00;2.37;;;;;;;9.05;71.95;95644.22;5028971;28;20344;-68
2023/11/21 01:20:34;;;;;;;5.67;3.77;;;;;;;9.05;71.97;95632.91;5028914;28;20199;-69
2023/11/21 01:22:59;;;;;;;9.60;3.23;;;;;;;9.03;71.68;95640.81;5029227;28;20480;-68
2023/11/21 01:25:25;;;;;;;12.97;2.60;;;;;;;9.05;71.94;95643.38;5028852;28;20490;-70
2023/11/21 01:27:51;;;;;;;4.00;2.20;;;;;;;9.08;71.68;95627.50;5029073;28;20950;-67
2023/11/21 01:30:17;;;;;;;5.57;2.33;;;;;;;9.06;72.13;95629.34;5028925;28;20179;-70
2023/11/21 01:32:43;;;;;;;4.50;2.80;;;;;;;9.05;72.00;95638.97;5033429;28;20206;-69
2023/11/21 01:35:09;;;;;;;9.50;3.00;;;;;;;9.05;71.88;95625.88;5048516;28;20409;-68
2023/11/21 01:37:35;;;;;;;10.03;3.07;;;;;;;9.05;71.71;95633.75;5048561;28;20445;-67
2023/11/21 01:40:01;;;;;;;8.53;4.43;;;;;;;9.07;71.62;95637.13;5048754;28;20501;-68
2023/11/21 01:42:27;;;;;;;7.53;2.23;;;;;;;9.03;72.20;95622.50;5048753;28;20229;-70
2023/11/21 01:44:54;;;;;;;4.90;2.33;;;;;;;9.06;72.53;95635.41;5048734;28;20492;-68
2023/11/21 01:47:21;;;;;;;6.70;3.30;;;;;;;9.13;71.73;95635.97;5048173;28;20217;-70
2023/11/21 01:49:47;;;;;;;5.83;2.53;;;;;;;9.03;72.47;95643.44;5048261;28;20463;-70
2023/11/21 01:52:13;;;;;;;6.07;2.30;;;;;;;8.94;72.79;95633.41;5048007;28;20434;-68
2023/11/21 01:54:39;;;;;;;6.13;2.83;;;;;;;8.94;73.31;95624.72;5047729;28;20405;-69
2023/11/21 01:57:06;;;;;;;4.83;2.50;;;;;;;8.99;72.84;95627.97;5047513;28;20192;-68
2023/11/21 01:59:37;;;;;;;8.50;4.77;;;;;;;9.01;72.44;95629.56;5048132;28;20452;-71
2023/11/21 02:02:06;;;;;;;4.83;2.20;;;;;;;9.01;72.06;95621.72;5048484;28;20437;-69
2023/11/21 02:04:36;;;;;;;6.70;2.53;;;;;;;8.98;72.47;95624.50;5047750;28;20496;-71
2023/11/21 02:07:05;;;;;;;5.53;2.77;;;;;;;8.95;72.99;95632.47;5049176;28;21277;-71
2023/11/21 02:09:31;;;;;;;3.60;2.70;;;;;;;8.99;72.37;95625.34;5047983;28;20928;-70
2023/11/21 02:11:58;;;;;;;5.87;2.23;;;;;;;9.01;72.38;95629.56;5047902;28;20433;-70
2023/11/21 02:14:24;;;;;;;3.27;2.20;;;;;;;8.97;71.95;95633.25;5047976;28;20421;-71
2023/11/21 02:16:51;;;;;;;9.57;2.20;;;;;;;8.92;72.81;95630.03;5053451;28;20419;-71
2023/11/21 02:19:25;;;;;;;3.70;1.90;;;;;;;8.91;72.34;95633.59;5061947;28;20578;-70
2023/11/21 02:21:51;;;;;;;7.40;3.13;;;;;;;8.95;72.21;95634.25;5062587;28;20429;-71
2023/11/21 02:24:19;;;;;;;13.20;2.80;;;;;;;8.84;72.72;95638.25;5058918;28;20409;-71
2023/11/21 02:26:45;;;;;;;6.70;2.40;;;;;;;8.84;72.87;95640.88;5048599;28;20468;-70
2023/11/21 02:29:12;;;;;;;3.57;2.03;;;;;;;8.87;73.30;95637.25;5047275;28;20413;-70
2023/11/21 02:31:47;;;;;;;5.20;2.23;;;;;;;8.88;72.70;95631.97;5047078;28;20438;-69
2023/11/21 02:34:16;;;;;;;6.87;1.83;;;;;;;8.89;72.87;95622.34;5030053;28;20425;-71
2023/11/21 02:36:42;;;;;;;9.73;2.03;;;;;;;8.89;73.02;95630.19;5026923;28;20696;-71
2023/11/21 02:39:08;;;;;;;4.70;2.70;;;;;;;8.84;73.47;95626.97;5027110;28;20406;-71
2023/11/21 02:41:34;;;;;;;5.40;2.20;;;;;;;8.84;73.22;95619.94;5026994;28;21009;-70
2023/11/21 02:44:00;;;;;;;4.67;1.67;;;;;;;8.89;72.65;95614.50;5027467;28;20402;-70
2023/11/21 02:46:26;;;;;;;3.77;1.90;;;;;;;8.87;73.38;95613.72;5026710;28;20274;-72
2023/11/21 02:48:53;;;;;;;9.47;2.03;;;;;;;8.81;73.06;95609.66;5026965;28;20414;-71
2023/11/21 02:51:19;;;;;;;4.40;2.50;;;;;;;8.84;73.57;95606.03;5026744;28;20191;-72
2023/11/21 02:53:46;;;;;;;6.93;2.37;;;;;;;8.81;73.68;95608.78;5025761;28;20428;-69
2023/11/21 02:56:12;;;;;;;8.00;2.13;;;;;;;8.86;73.26;95609.41;5026656;28;20589;-71
2023/11/21 02:58:37;;;;;;;4.80;2.10;;;;;;;8.70;72.93;95609.31;5027631;28;20429;-71
2023/11/21 03:01:07;;;;;;;8.43;1.70;;;;;;;8.71;73.47;95608.38;5026550;28;20180;-70
2023/11/21 03:03:32;;;;;;;6.83;2.43;;;;;;;8.75;72.91;95611.72;5026714;28;20600;-68
2023/11/21 03:05:58;;;;;;;4.70;2.10;;;;;;;8.68;72.76;95614.63;5026290;28;20421;-71
2023/11/21 03:08:23;;;;;;;6.93;2.57;;;;;;;8.59;73.35;95611.59;5025800;28;20195;-71
2023/11/21 03:10:48;;;;;;;3.43;1.90;;;;;;;8.47;74.00;95611.28;5026478;28;20175;-70
2023/11/21 03:13:14;;;;;;;4.07;2.00;;;;;;;8.60;73.92;95608.94;5026432;28;20889;-71
2023/11/21 03:15:39;;;;;;;8.43;2.20;;;;;;;8.57;73.88;95611.69;5026195;28;20298;-71
2023/11/21 03:18:04;;;;;;;4.00;1.80;;;;;;;8.27;75.38;95606.16;5026417;28;20206;-71
2023/11/21 03:20:30;;;;;;;4.73;1.80;;;;;;;8.40;74.36;95620.34;5026332;28;20711;-71
2023/11/21 03:22:55;;;;;;;4.30;2.30;;;;;;;8.52;73.90;95615.44;5026614;28;20225;-70
2023/11/21 03:25:23;;;;;;;5.80;3.20;;;;;;;8.62;73.87;95614.94;5026173;28;20237;-70
2023/11/21 03:27:49;;;;;;;4.47;2.03;;;;;;;8.61;74.24;95615.00;5026270;28;20745;-71
2023/11/21 03:30:15;;;;;;;3.27;1.97;;;;;;;8.46;74.12;95612.22;5026366;28;20414;-71
2023/11/21 03:32:40;;;;;;;6.20;2.00;;;;;;;8.43;74.23;95609.75;5030380;28;20199;-70
2023/11/21 03:35:06;;;;;;;4.10;1.60;;;;;;;8.56;74.74;95615.22;5045834;28;20171;-71
2023/11/21 03:37:31;;;;;;;3.93;1.80;;;;;;;8.23;75.54;95618.50;5046210;28;20170;-71
2023/11/21 03:39:56;;;;;;;3.33;1.50;;;;;;;8.34;75.80;95612.78;5046081;28;20171;-71
2023/11/21 03:42:22;;;;;;;7.13;1.80;;;;;;;8.53;74.99;95615.38;5045859;28;20697;-71
2023/11/21 03:44:47;;;;;;;5.53;1.50;;;;;;;8.58;74.70;95618.63;5046150;28;20278;-70
2023/11/21 03:47:13;;;;;;;3.10;1.80;;;;;;;8.35;75.50;95618.84;5046221;28;20209;-69
2023/11/21 03:49:38;;;;;;;4.53;2.00;;;;;;;8.56;75.70;95614.38;5045889;28;20177;-70
2023/11/21 03:52:04;;;;;;;8.23;2.20;;;;;;;8.65;75.19;95622.63;5046047;28;20209;-72
2023/11/21 03:54:30;;;;;;;8.33;2.30;;;;;;;8.67;75.16;95620.78;5045890;28;20317;-70
2023/11/21 03:56:55;;;;;;;4.67;1.80;;;;;;;8.65;75.05;95616.56;5046083;28;20163;-71
2023/11/21 03:59:24;;;;;;;3.80;2.27;;;;;;;8.72;74.95;95622.31;5046357;28;20256;-70
2023/11/21 04:01:50;;;;;;;3.63;1.50;;;;;;;8.70;74.36;95617.16;5045710;28;20198;-69
2023/11/21 04:04:15;;;;;;;3.47;1.53;;;;;;;8.75;74.66;95614.34;5046123;28;20409;-70
2023/11/21 04:06:41;;;;;;;2.50;1.73;;;;;;;8.83;74.56;95622.63;5045766;28;20174;-71
2023/11/21 04:09:06;;;;;;;6.20;2.00;;;;;;;8.85;74.39;95615.56;5046752;28;20186;-70
2023/11/21 04:11:32;;;;;;;4.73;2.13;;;;;;;8.78;74.31;95619.41;5049129;28;20409;-70
2023/11/21 04:13:57;;;;;;;2.90;1.50;;;;;;;8.82;74.29;95624.41;5046278;28;20186;-71
2023/11/21 04:16:22;;;;;;;2.90;1.40;;;;;;;8.73;74.48;95627.47;5047788;28;20241;-72
2023/11/21 04:18:48;;;;;;;4.53;1.57;;;;;;;8.78;74.43;95628.09;5048418;28;20246;-70
2023/11/21 04:21:13;;;;;;;5.47;2.10;;;;;;;8.81;74.28;95630.56;5050195;28;20174;-70
2023/11/21 04:23:39;;;;;;;4.30;2.13;;;;;;;8.77;74.77;95629.03;5050451;28;20195;-72
2023/11/21 04:26:05;;;;;;;2.43;1.37;;;;;;;8.73;74.86;95634.47;5050176;28;20175;-71
2023/11/21 04:28:30;;;;;;;7.90;1.73;;;;;;;8.83;74.67;95633.94;5049974;28;20959;-72
2023/11/21 04:30:56;;;;;;;4.97;1.80;;;;;;;8.84;74.60;95634.81;5052060;28;20257;-71
2023/11/21 04:33:22;;;;;;;2.73;1.73;;;;;;;8.93;74.31;95636.09;5039509;28;20274;-71
2023/11/21 04:35:48;;;;;;;3.87;1.80;;;;;;;8.89;74.51;95630.19;5029521;28;20238;-69
2023/11/21 04:38:13;;;;;;;3.87;1.67;;;;;;;8.88;74.26;95631.09;5029234;28;20413;-70
2023/11/21 04:40:39;;;;;;;7.43;1.80;;;;;;;8.87;74.62;95630.25;5029354;28;20657;-69
2023/11/21 04:43:04;;;;;;;6.30;1.80;;;;;;;8.86;74.39;95631.19;5029075;28;20191;-70
2023/11/21 04:45:30;;;;;;;5.00;1.40;;;;;;;8.94;74.01;95636.03;5028784;28;20225;-71
2023/11/21 04:47:56;;;;;;;3.93;1.40;;;;;;;8.86;74.48;95635.59;5029235;28;20230;-71
2023/11/21 04:50:21;;;;;;;4.07;1.87;;;;;;;8.93;73.91;95634.34;5028945;28;20253;-71
2023/11/21 04:52:47;;;;;;;9.40;1.63;;;;;;;8.89;74.29;95638.88;5028915;28;20604;-70
2023/11/21 04:55:12;;;;;;;6.03;2.87;;;;;;;8.88;74.31;95642.44;5028528;28;20691;-71
2023/11/21 04:57:38;;;;;;;3.83;2.10;;;;;;;8.82;74.30;95637.50;5029117;28;20175;-72
2023/11/21 05:00:05;;;;;;;2.57;1.53;;;;;;;8.84;74.21;95642.66;5028877;28;20261;-71
2023/11/21 05:02:38;;;;;;;5.93;1.93;;;;;;;8.80;74.89;95646.34;5028706;28;20201;-70
2023/11/21 05:05:05;;;;;;;5.97;1.57;;;;;;;8.77;74.96;95644.72;5027061;28;20418;-70
2023/11/21 05:07:32;;;;;;;4.97;2.20;;;;;;;8.79;74.50;95649.88;5041660;28;20468;-71
2023/11/21 05:09:57;;;;;;;4.00;2.43;;;;;;;8.49;76.46;95645.22;5048335;28;20780;-69
2023/11/21 05:12:24;;;;;;;3.93;2.10;;;;;;;8.48;77.05;95646.97;5031879;28;20441;-71
2023/11/21 05:14:50;;;;;;;6.23;2.37;;;;;;;8.64;75.78;95644.44;5026284;28;20241;-71
2023/11/21 05:17:15;;;;;;;4.30;1.90;;;;;;;8.06;77.56;95652.41;5026461;28;20438;-70
2023/11/21 05:19:41;;;;;;;3.20;1.60;;;;;;;8.53;76.79;95643.28;5026746;28;20555;-72
2023/11/21 05:22:07;;;;;;;4.40;2.07;;;;;;;8.37;77.14;95646.59;5026542;28;20200;-71
2023/11/21 05:24:33;;;;;;;3.80;1.90;;;;;;;8.40;76.29;95645.63;5025934;28;20179;-71
2023/11/21 05:26:59;;;;;;;4.70;2.33;;;;;;;8.63;76.02;95649.78;5026388;28;20479;-70
2023/11/21 05:29:25;;;;;;;3.67;2.23;;;;;;;8.62;76.16;95655.91;5028010;28;20837;-71
2023/11/21 05:31:51;;;;;;;4.87;2.23;;;;;;;8.77;75.44;95656.97;5027906;28;20494;-70
2023/11/21 05:34:16;;;;;;;6.43;2.70;;;;;;;8.50;76.37;95654.72;5046526;28;20293;-71
2023/11/21 05:36:45;;;;;;;5.10;2.20;;;;;;;8.51;75.97;95660.84;5048049;28;20175;-69
2023/11/21 05:39:11;;;;;;;4.40;2.20;;;;;;;8.51;76.38;95664.28;5044491;28;20231;-71
2023/11/21 05:41:36;;;;;;;5.53;2.20;;;;;;;8.64;75.94;95664.53;5035878;28;20961;-70
2023/11/21 05:44:02;;;;;;;4.17;2.00;;;;;;;8.44;76.65;95663.72;5032393;28;20183;-68
2023/11/21 05:46:27;;;;;;;3.43;1.83;;;;;;;8.67;75.40;95662.63;5038101;28;20233;-70
2023/11/21 05:48:52;;;;;;;7.43;2.50;;;;;;;8.73;75.48;95660.63;5040498;28;20187;-72
2023/11/21 05:51:18;;;;;;;4.30;2.37;;;;;;;8.86;74.83;95661.75;5030785;28;20179;-70
2023/11/21 05:53:44;;;;;;;4.93;2.27;;;;;;;8.83;75.08;95661.88;5025112;28;20207;-72
2023/11/21 05:56:09;;;;;;;3.27;2.10;;;;;;;8.73;75.09;95663.25;5036622;28;20179;-71
2023/11/21 05:58:35;;;;;;;6.90;2.27;;;;;;;8.67;75.43;95670.47;5038301;28;20647;-70
2023/11/21 06:01:00;;;;;;;4.07;2.23;;;;;;;8.71;75.31;95670.31;5035829;28;20178;-68
2023/11/21 06:03:25;;;;;;;6.33;2.77;;;;;;;8.73;75.02;95671.09;5037231;28;20272;-72
2023/11/21 06:05:51;;;;;;;3.93;1.90;;;;;;;8.62;75.72;95672.47;5037712;28;20240;-69
2023/11/21 06:08:16;;;;;;;4.90;1.90;;;;;;;8.80;74.91;95672.50;5038310;28;20222;-71
2023/11/21 06:10:43;;;;;;;2.30;1.70;;;;;;;8.85;74.62;95676.56;5044769;28;20174;-71
2023/11/21 06:13:10;;;;;;;12.00;6.43;;;;;;;8.90;74.34;95672.00;5053911;28;20242;-70
2023/11/21 06:15:35;;;;;;;3.60;2.60;;;;;;;8.77;75.01;95683.97;5030636;28;21146;-71
2023/11/21 06:18:01;;;;;;;4.00;2.60;;;;;;;8.73;75.40;95684.19;5042023;28;20413;-68
2023/11/21 06:20:27;;;;;;;7.90;3.50;;;;;;;8.75;75.28;95677.94;5045292;28;20183;-68
2023/11/21 06:22:52;;;;;;;10.20;5.70;;;;;;;8.83;74.61;95680.19;5029198;28;20198;-69
2023/11/21 06:25:18;;;;;;;5.77;2.67;;;;;;;8.82;75.28;95683.75;5044403;28;20204;-69
2023/11/21 06:27:45;;;;;;;9.20;3.50;;;;;;;8.83;75.51;95690.66;5044887;28;20206;-68
2023/11/21 06:30:13;;;;;;;7.47;3.30;;;;;;;8.76;75.35;95690.09;5044850;28;20296;-69
2023/11/21 06:32:39;;;;;;;7.20;3.00;;;;;;;8.80;75.22;95698.66;5044419;28;20429;-69
2023/11/21 06:35:06;;;;;;;3.93;2.37;;;;;;;8.77;75.53;95699.66;5042790;28;20477;-68
2023/11/21 06:37:32;;;;;;;7.57;3.60;;;;;;;8.76;75.39;95694.50;5044856;28;21024;-70
2023/11/21 06:39:58;;;;;;;2.50;1.93;;;;;;;8.84;74.97;95694.97;5045413;28;20456;-69
2023/11/21 06:42:25;;;;;;;2.70;2.20;;;;;;;8.80;75.23;95691.66;5043874;28;20483;-68
2023/11/21 06:44:56;;;;;;;3.80;2.37;;;;;;;8.84;74.59;95693.22;5044439;28;20956;-69
2023/11/21 06:47:24;;;;;;;4.03;2.07;;;;;;;8.87;74.83;95694.81;5044808;28;20460;-68
2023/11/21 06:49:51;;;;;;;7.63;3.00;;;;;;;8.82;74.88;95695.03;5044270;28;20459;-69
2023/11/21 06:52:16;;;;;;;7.40;3.67;;;;;;;8.82;74.92;95697.66;5044283;28;20471;-69
2023/11/21 06:54:42;;;;;;;5.57;1.87;;;;;;;8.77;75.22;95696.19;5044168;28;20413;-69
2023/11/21 06:57:07;;;;;;;41.07;5.90;;;;;;;8.74;75.77;95706.78;5044178;28;20625;-69
2023/11/21 06:59:33;;;;;;;19.33;4.53;;;;;;;8.81;75.27;95709.06;5044319;28;20774;-69
2023/11/21 07:01:58;;;;;;;23.33;4.40;;;;;;;8.74;75.35;95705.03;5043727;28;20826;-68
2023/11/21 07:04:25;;;;;;;8.40;2.10;;;;;;;8.74;75.06;95717.25;5041742;28;20190;-71
2023/11/21 07:06:53;;;;;;;19.73;3.20;;;;;;;8.94;75.12;95718.94;5043745;28;20238;-71
2023/11/21 07:09:21;;;;;;;5.40;2.63;;;;;;;8.88;75.20;95725.28;5044514;28;20410;-71
2023/11/21 07:11:48;;;;;;;6.17;2.20;;;;;;;8.92;74.43;95721.59;5044201;28;21345;-70
2023/11/21 07:14:14;;;;;;;6.80;2.83;;;;;;;8.97;74.65;95724.00;5045707;28;20433;-70
2023/11/21 07:16:39;;;;;;;4.10;2.30;;;;;;;8.93;74.97;95732.91;5045220;28;20413;-71
2023/11/21 07:19:08;;;;;;;3.63;2.03;;;;;;;9.01;73.83;95736.03;5046457;28;20174;-71
2023/11/21 07:21:37;;;;;;;5.67;2.90;;;;;;;8.92;74.63;95737.31;5046238;28;20182;-70
2023/11/21 07:24:03;;;;;;;3.87;2.67;;;;;;;9.01;73.91;95741.25;5043746;28;20561;-70
2023/11/21 07:26:29;;;;;;;4.23;2.80;;;;;;;9.07;73.94;95744.44;5045022;28;20401;-70
2023/11/21 07:28:55;;;;;;;5.83;2.40;;;;;;;9.08;73.72;95753.97;5050758;28;20461;-68
2023/11/21 07:31:21;;;;;;;2.73;2.10;;;;;;;9.13;73.06;95748.53;5046139;28;20402;-67
2023/11/21 07:33:47;;;;;;;4.73;2.77;;;;;;;9.16;72.69;95750.97;5032605;28;21015;-68
2023/11/21 07:36:14;;;;;;;6.30;3.70;;;;;;;9.08;73.15;95747.91;5026356;28;20410;-69
2023/11/21 07:38:39;;;;;;;17.10;4.20;;;;;;;9.05;73.52;95751.50;5027358;28;20235;-68
2023/11/21 07:41:07;;;;;;;25.90;5.53;;;;;;;9.14;73.29;95754.59;5027108;28;20506;-69
2023/11/21 07:43:35;;;;;;;14.33;3.60;;;;;;;9.18;73.03;95753.53;5033923;28;20199;-69
2023/11/21 07:46:04;;;;;;;5.83;2.90;;;;;;;9.12;73.17;95759.91;5044751;28;20430;-68
2023/11/21 07:48:31;;;;;;;6.43;2.70;;;;;;;9.15;73.42;95751.06;5044508;28;20454;-69
2023/11/21 07:50:56;;;;;;;4.53;2.87;;;;;;;9.24;72.70;95759.31;5036937;28;20888;-69
2023/11/21 07:53:22;;;;;;;3.80;2.63;;;;;;;9.20;73.39;95752.53;5028044;28;20442;-68
2023/11/21 07:55:47;;;;;;;4.93;3.70;;;;;;;9.16;73.19;95758.00;5028590;28;20179;-70
2023/11/21 07:58:13;;;;;;;4.87;2.40;;;;;;;9.18;73.05;95762.22;5029589;28;20167;-67
2023/11/21 08:00:39;;;;;;;5.83;1.93;;;;;;;9.25;72.37;95760.16;5029246;28;20175;-67
2023/11/21 08:03:05;;;;;;;3.17;2.20;;;;;;;9.19;72.96;95766.56;5029980;28;20198;-70
2023/11/21 08:05:31;;;;;;;10.00;2.80;;;;;;;9.22;72.97;95755.09;5028753;28;20406;-70
2023/11/21 08:07:57;;;;;;;5.10;2.57;;;;;;;9.31;72.49;95768.56;5029870;28;20469;-67
2023/11/21 08:10:22;;;;;;;2.30;1.93;;;;;;;9.36;72.62;95765.72;5030177;28;20258;-69
2023/11/21 08:12:48;;;;;;;3.33;2.40;;;;;;;9.39;72.55;95769.97;5030011;28;20947;-69
2023/11/21 08:15:14;;;;;;;6.10;2.77;;;;;;;9.40;72.03;95767.28;5030799;28;20232;-68
2023/11/21 08:17:39;;;;;;;6.30;2.30;;;;;;;9.48;72.09;95778.22;5036892;28;20230;-68
2023/11/21 08:20:06;;;;;;;4.50;2.67;;;;;;;9.60;71.92;95770.66;5051507;28;20186;-68
2023/11/21 08:22:31;;;;;;;12.50;3.20;;;;;;;9.71;71.42;95773.59;5045496;28;20199;-70
2023/11/21 08:24:57;;;;;;;3.07;2.20;;;;;;;9.69;71.62;95763.19;5039474;28;20456;-73
2023/11/21 08:27:23;;;;;;;4.07;2.80;;;;;;;9.61;71.58;95774.97;5048371;28;20233;-71
2023/11/21 08:29:48;;;;;;;2.90;2.27;;;;;;;9.66;71.65;95786.06;5038009;28;20410;-69
2023/11/21 08:32:14;;;;;;;3.53;2.50;;;;;;;9.61;71.49;95773.19;5040438;28;20194;-68
2023/11/21 08:34:42;;;;;;;2.90;2.60;;;;;;;9.90;70.80;95781.38;5035568;28;20186;-71
2023/11/21 08:37:08;;;;;;;4.33;2.67;;;;;;;11.91;63.67;95775.63;5049659;28;20492;-70
2023/11/21 08:39:33;;;;;;;5.53;3.77;;;;;;;11.66;63.33;95777.00;5049331;28;20521;-70
2023/11/21 08:41:59;;;;;;;6.10;2.70;;;;;;;11.43;65.06;95774.84;5047208;28;20260;-70
2023/11/21 08:44:24;;;;;;;9.97;2.60;;;;;;;11.22;65.20;95783.03;5048711;28;20178;-71
2023/11/21 08:46:50;;;;;;;7.10;1.90;;;;;;;10.95;65.96;95779.31;5048404;28;20175;-70
2023/11/21 08:49:15;;;;;;;3.57;2.70;;;;;;;10.58;67.50;95781.31;5048719;28;20183;-69
2023/11/21 08:51:44;;;;;;;8.27;2.80;;;;;;;10.36;68.35;95776.38;5049004;28;20199;-69
2023/11/21 08:54:09;;;;;;;15.77;3.43;;;;;;;10.16;68.36;95780.03;5048905;28;20405;-68
2023/11/21 08:56:35;;;;;;;11.53;3.17;;;;;;;10.16;68.93;95791.34;5034478;28;20775;-70
2023/11/21 08:59:02;;;;;;;14.60;3.50;;;;;;;10.19;69.08;95795.59;5055517;28;20194;-70
2023/11/21 09:01:31;;;;;;;7.53;3.50;;;;;;;10.05;69.39;95792.84;5065466;28;20686;-68
2023/11/21 09:03:57;;;;;;;4.53;2.80;;;;;;;10.01;70.15;95794.75;5058007;28;20420;-71
2023/11/21 09:06:23;;;;;;;8.10;3.23;;;;;;;10.02;70.28;95795.63;5047848;28;20409;-70
2023/11/21 09:08:48;;;;;;;4.53;3.00;;;;;;;9.99;69.94;95798.38;5049203;28;20463;-70
2023/11/21 09:11:14;;;;;;;7.50;3.17;;;;;;;10.27;69.17;95800.44;5052003;28;20628;-69
2023/11/21 09:13:39;;;;;;;6.70;3.20;;;;;;;10.49;68.83;95797.56;5057086;28;20202;-70
2023/11/21 09:16:05;;;;;;;6.67;3.53;;;;;;;10.85;66.50;95796.53;5057278;28;20170;-70
2023/11/21 09:18:31;;;;;;;4.87;3.33;;;;;;;10.75;67.31;95791.78;5052834;28;20193;-70
2023/11/21 09:20:56;;;;;;;4.33;3.30;;;;;;;10.69;67.02;95799.13;5066789;28;20444;-70
2023/11/21 09:23:22;;;;;;;5.17;4.70;;;;;;;10.46;68.19;95800.34;5068466;28;20575;-71
2023/11/21 09:25:49;;;;;;;4.00;3.20;;;;;;;10.50;68.07;95797.47;5067840;28;20173;-72
2023/11/21 09:28:15;;;;;;;7.00;3.60;;;;;;;11.28;65.97;95797.59;5068742;28;20202;-70
2023/11/21 09:30:41;;;;;;;4.00;3.53;;;;;;;12.50;61.90;95799.25;5062990;28;20508;-68
2023/11/21 09:33:06;;;;;;;4.17;3.77;;;;;;;13.23;59.15;95796.44;5040024;28;20537;-68
2023/11/21 09:35:32;;;;;;;5.13;2.80;;;;;;;13.17;58.52;95796.81;5040159;28;20210;-69
2023/11/21 09:37:57;;;;;;;6.13;4.10;;;;;;;13.17;58.42;95793.34;5047917;28;20170;-67
2023/11/21 09:40:23;;;;;;;7.60;4.30;;;;;;;13.09;59.15;95801.75;5048596;28;20499;-67
2023/11/21 09:42:58;;;;;;;7.50;3.67;;;;;;;13.33;58.47;95797.56;5042795;28;20251;-68
2023/11/21 09:45:28;;;;;;;6.77;3.63;;;;;;;13.22;58.14;95807.06;5039385;28;20182;-68
2023/11/21 09:47:56;;;;;;;3.80;3.30;;;;;;;12.87;59.39;95811.00;5043455;28;20454;-68
2023/11/21 09:50:22;;;;;;;6.17;3.60;;;;;;;12.98;59.11;95809.47;5027233;28;20549;-68
2023/11/21 09:53:24;;;;;;;15.97;4.93;;;;;;;12.64;59.94;95806.31;5027323;28;20477;-69
2023/11/21 09:55:52;;;;;;;14.30;3.80;;;;;;;12.52;59.79;95805.28;5027230;28;20912;-68
2023/11/21 09:58:19;;;;;;;6.90;3.50;;;;;;;12.35;60.88;95806.28;5027627;28;20886;-67
2023/11/21 10:00:48;;;;;;;17.53;3.97;;;;;;;12.16;60.92;95805.69;5027510;28;20418;-68
2023/11/21 10:03:15;;;;;;;5.40;3.50;;;;;;;12.06;62.26;95808.88;5027485;28;20456;-67
2023/11/21 10:05:44;;;;;;;13.57;4.30;;;;;;;11.99;62.43;95804.91;5027098;28;20424;-66
2023/11/21 10:08:11;;;;;;;7.43;3.63;;;;;;;11.95;62.14;95807.81;5027362;28;20462;-68
2023/11/21 10:10:41;;;;;;;3.13;2.77;;;;;;;11.98;62.85;95808.50;5027404;28;20411;-69
2023/11/21 10:13:10;;;;;;;8.00;3.87;;;;;;;12.04;62.28;95810.75;5027225;28;21036;-68
2023/11/21 10:15:36;;;;;;;9.30;4.00;;;;;;;12.33;62.29;95802.94;5027362;28;20836;-68
2023/11/21 10:18:03;;;;;;;9.13;4.70;;;;;;;12.32;61.51;95803.84;5027147;28;20418;-68
2023/11/21 10:20:30;;;;;;;8.90;3.93;;;;;;;12.40;60.84;95800.75;5026867;28;20171;-68
2023/11/21 10:22:56;;;;;;;5.43;3.63;;;;;;;12.40;60.44;95804.25;5027538;28;20521;-69
2023/11/21 10:25:22;;;;;;;9.40;5.90;;;;;;;13.03;59.01;95789.78;5027515;28;20493;-68
2023/11/21 10:27:51;;;;;;;10.93;4.80;;;;;;;14.44;73.23;95792.84;5027439;28;20454;-68
2023/11/21 10:30:17;;;;;;;13.77;3.90;;;;;;;15.43;60.70;95777.03;5027096;28;20279;-69
2023/11/21 10:32:43;;;;;;;6.63;3.10;;;;;;;14.70;54.41;95779.66;5031761;28;20486;-69
2023/11/21 10:35:12;;;;;;;8.80;3.90;;;;;;;14.55;54.98;95781.56;5046640;28;20417;-68
2023/11/21 10:37:45;;;;;;;7.50;3.23;;;;;;;14.54;54.51;95786.00;5035395;28;20179;-68
2023/11/21 10:40:11;;;;;;;6.20;3.10;;;;;;;14.42;54.70;95783.34;5028568;28;20451;-69
2023/11/21 10:42:38;;;;;;;5.27;3.00;;;;;;;14.43;54.33;95779.75;5027067;28;20527;-67
2023/11/21 10:45:11;;;;;;;9.47;4.90;;;;;;;14.55;54.79;95777.16;5026507;28;20442;-68
2023/11/21 10:47:38;;;;;;;4.90;2.93;;;;;;;14.77;53.62;95773.00;5026735;28;20588;-68
2023/11/21 10:50:04;;;;;;;10.33;2.77;;;;;;;14.90;53.26;95768.50;5026771;28;20418;-70
2023/11/21 10:52:29;;;;;;;11.13;2.80;;;;;;;14.96;52.93;95777.81;5026679;28;20495;-68
2023/11/21 10:54:55;;;;;;;6.67;2.40;;;;;;;15.14;52.67;95773.00;5027133;28;20168;-68
2023/11/21 10:57:23;;;;;;;15.43;3.20;;;;;;;15.07;52.27;95780.53;5027019;28;20171;-68
2023/11/21 10:59:49;;;;;;;7.53;2.63;;;;;;;15.08;51.69;95773.44;5027578;28;20180;-69
2023/11/21 11:02:20;;;;;;;13.53;3.97;;;;;;;14.96;52.56;95773.38;5027790;28;20951;-67
2023/11/21 11:04:48;;;;;;;7.47;2.50;;;;;;;14.58;52.67;95779.56;5030060;28;20175;-69
2023/11/21 11:07:16;;;;;;;3.73;1.60;;;;;;;14.40;52.69;95776.34;5027203;28;20462;-68
2023/11/21 11:09:41;;;;;;;3.10;1.70;;;;;;;14.33;53.27;95776.91;5027787;28;20412;-67
2023/11/21 11:12:09;;;;;;;4.63;2.03;;;;;;;14.54;51.82;95772.78;5028258;28;20442;-67
2023/11/21 11:14:36;;;;;;;9.10;2.13;;;;;;;14.69;51.24;95762.09;5032874;28;20543;-68
2023/11/21 11:17:03;;;;;;;7.67;2.37;;;;;;;14.56;52.06;95770.91;5037046;28;20413;-68
2023/11/21 11:19:30;;;;;;;8.17;2.63;;;;;;;14.68;51.91;95769.19;5041683;28;20420;-68
2023/11/21 11:22:21;;;;;;;17.23;4.30;;;;;;;14.48;52.30;95773.22;5042554;28;20438;-68
2023/11/21 11:24:55;;;;;;;7.57;2.70;;;;;;;13.81;53.88;95775.16;5041855;28;20902;-67
2023/11/21 11:27:29;;;;;;;5.20;1.60;;;;;;;13.48;54.09;95771.16;5041588;28;20454;-68
2023/11/21 11:30:12;;;;;;;3.50;1.43;;;;;;;13.35;54.94;95768.50;5032333;28;20401;-68
2023/11/21 11:32:49;;;;;;;1.70;1.20;;;;;;;13.33;54.19;95765.94;5026249;28;20440;-70
2023/11/21 11:35:33;;;;;;;2.13;1.30;;;;;;;13.36;53.82;95761.41;5026686;28;20416;-68